| time (UTC) | temp C | wind direction | speed KPH | gust KPH | rain 1hr cm | rain 24hr cm | rain mn cm | humidity % | barometer mb |
| 20260507235404 | 18 | 301 | 3.2 | 9.7 | 0.00 | 1.09 | 0.00 | 38 | 1012.2 |
| 20260507234904 | 18 | 311 | 1.6 | 11.3 | 0.00 | 1.09 | 0.00 | 39 | 1012.3 |
| 20260507234404 | 17 | 338 | 3.2 | 9.7 | 0.00 | 1.09 | 0.00 | 40 | 1012.6 |
| 20260507233904 | 17 | 311 | 1.6 | 9.7 | 0.00 | 1.09 | 0.00 | 40 | 1012.4 |
| 20260507233405 | 16 | 317 | 3.2 | 11.3 | 0.00 | 1.09 | 0.00 | 40 | 1012.7 |
| 20260507232904 | 16 | 320 | 0.0 | 11.3 | 0.00 | 1.09 | 0.00 | 40 | 1012.5 |
| 20260507232404 | 17 | 337 | 4.8 | 14.5 | 0.00 | 1.09 | 0.00 | 40 | 1012.2 |
| 20260507231904 | 17 | 340 | 3.2 | 8.0 | 0.00 | 1.09 | 0.00 | 40 | 1012.4 |
| 20260507231404 | 17 | 283 | 1.6 | 9.7 | 0.00 | 1.09 | 0.00 | 40 | 1012.4 |
| 20260507230904 | 17 | 295 | 1.6 | 8.0 | 0.00 | 1.09 | 0.00 | 40 | 1012.2 |
| 20260507230404 | 17 | 339 | 0.0 | 4.8 | 0.00 | 1.09 | 0.00 | 40 | 1012.5 |
| 20260507225905 | 17 | 341 | 4.8 | 14.5 | 0.00 | 1.09 | 0.00 | 40 | 1012.3 |
| 20260507224404 | 17 | 280 | 0.0 | 4.8 | 0.00 | 1.09 | 0.00 | 40 | 1012.4 |
| 20260507223904 | 17 | 323 | 1.6 | 4.8 | 0.00 | 1.09 | 0.00 | 39 | 1012.3 |
| 20260507222903 | 17 | 292 | 3.2 | 11.3 | 0.00 | 1.09 | 0.00 | 39 | 1012.3 |
| 20260507222404 | 17 | 338 | 8.0 | 19.3 | 0.00 | 1.09 | 0.00 | 39 | 1012.4 |
| 20260507221904 | 18 | 282 | 3.2 | 12.9 | 0.00 | 1.09 | 0.00 | 40 | 1012.4 |
| 20260507221404 | 18 | 302 | 4.8 | 9.7 | 0.00 | 1.09 | 0.00 | 40 | 1012.1 |
| 20260507220404 | 18 | 307 | 3.2 | 12.9 | 0.00 | 1.09 | 0.00 | 40 | 1012.3 |
| 20260507215904 | 18 | 329 | 1.6 | 9.7 | 0.00 | 1.09 | 0.00 | 40 | 1012.3 |
| 20260507215404 | 18 | 278 | 1.6 | 11.3 | 0.00 | 1.09 | 0.00 | 40 | 1012.2 |
| 20260507214904 | 18 | 303 | 3.2 | 14.5 | 0.00 | 1.09 | 0.00 | 40 | 1012.3 |
| 20260507214404 | 17 | 291 | 3.2 | 11.3 | 0.00 | 1.09 | 0.00 | 40 | 1012.2 |
| 20260507213904 | 17 | 295 | 4.8 | 16.1 | 0.00 | 1.09 | 0.00 | 39 | 1012.3 |
| 20260507211904 | 17 | 293 | 0.0 | 14.5 | 0.00 | 1.09 | 0.00 | 39 | 1011.9 |
| 20260507211405 | 17 | 336 | 0.0 | 14.5 | 0.00 | 1.09 | 0.00 | 39 | 1012.1 |
| 20260507210904 | 17 | 297 | 8.0 | 14.5 | 0.00 | 1.09 | 0.00 | 40 | 1012.1 |
| 20260507210404 | 17 | 338 | 3.2 | 12.9 | 0.00 | 1.09 | 0.00 | 39 | 1012.0 |
| 20260507205904 | 17 | 299 | 6.4 | 16.1 | 0.00 | 1.09 | 0.00 | 39 | 1012.1 |
| 20260507205404 | 17 | 311 | 4.8 | 14.5 | 0.00 | 1.09 | 0.00 | 39 | 1012.3 |
| 20260507204904 | 18 | 338 | 11.3 | 20.9 | 0.00 | 1.09 | 0.00 | 39 | 1012.0 |
| 20260507204404 | 18 | 292 | 1.6 | 8.0 | 0.00 | 1.09 | 0.00 | 40 | 1012.4 |
| 20260507203404 | 17 | 338 | 3.2 | 16.1 | 0.00 | 1.09 | 0.00 | 40 | 1012.0 |
| 20260507202904 | 17 | 321 | 6.4 | 19.3 | 0.00 | 1.09 | 0.00 | 40 | 1012.0 |
| 20260507202404 | 17 | 302 | 9.7 | 20.9 | 0.00 | 1.09 | 0.00 | 40 | 1012.2 |
| 20260507201904 | 17 | 80 | 1.6 | 11.3 | 0.00 | 1.09 | 0.00 | 40 | 1012.1 |
| 20260507201404 | 17 | 275 | 8.0 | 20.9 | 0.00 | 1.09 | 0.00 | 40 | 1012.2 |
| 20260507200904 | 17 | 330 | 4.8 | 20.9 | 0.00 | 1.09 | 0.00 | 41 | 1012.0 |
| 20260507200404 | 18 | 264 | 4.8 | 20.9 | 0.00 | 1.09 | 0.00 | 41 | 1012.3 |
| 20260507195904 | 18 | 313 | 1.6 | 12.9 | 0.00 | 1.09 | 0.00 | 41 | 1012.2 |
| 20260507195404 | 17 | 299 | 4.8 | 19.3 | 0.00 | 1.09 | 0.00 | 41 | 1012.1 |
| 20260507194904 | 18 | 322 | 4.8 | 16.1 | 0.00 | 1.09 | 0.00 | 41 | 1012.1 |
| 20260507194404 | 18 | 295 | 6.4 | 16.1 | 0.00 | 1.09 | 0.00 | 42 | 1012.3 |
| 20260507185904 | 18 | 312 | 3.2 | 12.9 | 0.00 | 1.09 | 0.00 | 42 | 1012.4 |
| 20260507185404 | 17 | 306 | 4.8 | 19.3 | 0.00 | 1.09 | 0.00 | 43 | 1012.4 |
| 20260507184905 | 17 | 313 | 4.8 | 20.9 | 0.00 | 1.09 | 0.00 | 43 | 1012.4 |
| 20260507184404 | 17 | 9 | 0.0 | 9.7 | 0.00 | 1.09 | 0.00 | 43 | 1012.7 |
| 20260507183903 | 17 | 312 | 3.2 | 12.9 | 0.00 | 1.09 | 0.00 | 43 | 1012.7 |
| 20260507183404 | 17 | 347 | 1.6 | 9.7 | 0.00 | 1.09 | 0.00 | 43 | 1012.6 |
| 20260507182903 | 17 | 352 | 1.6 | 9.7 | 0.00 | 1.09 | 0.00 | 44 | 1012.6 |
| 20260507182404 | 17 | 276 | 3.2 | 16.1 | 0.00 | 1.09 | 0.00 | 44 | 1012.6 |
| 20260507181904 | 17 | 342 | 8.0 | 20.9 | 0.00 | 1.09 | 0.00 | 44 | 1013.0 |
| 20260507180904 | 17 | 313 | 9.7 | 19.3 | 0.00 | 1.09 | 0.00 | 44 | 1012.9 |
| 20260507180404 | 17 | 332 | 8.0 | 14.5 | 0.00 | 1.09 | 0.00 | 45 | 1012.9 |
| 20260507175403 | 17 | 315 | 3.2 | 14.5 | 0.00 | 1.09 | 0.00 | 45 | 1012.8 |
| 20260507174903 | 17 | 321 | 4.8 | 14.5 | 0.00 | 1.09 | 0.00 | 46 | 1012.9 |
| 20260507174404 | 17 | 308 | 8.0 | 16.1 | 0.00 | 1.09 | 0.00 | 48 | 1013.0 |
| 20260507173904 | 16 | 140 | 1.6 | 12.9 | 0.00 | 1.09 | 0.00 | 47 | 1013.0 |
| 20260507172904 | 16 | 307 | 4.8 | 19.3 | 0.00 | 1.09 | 0.00 | 46 | 1013.3 |
| 20260507172403 | 16 | 305 | 9.7 | 22.5 | 0.00 | 1.09 | 0.00 | 47 | 1013.2 |
| 20260507171904 | 16 | 298 | 1.6 | 11.3 | 0.00 | 1.09 | 0.00 | 47 | 1013.2 |
| 20260507171404 | 16 | 284 | 6.4 | 20.9 | 0.00 | 1.09 | 0.00 | 48 | 1013.7 |
| 20260507170904 | 16 | 331 | 4.8 | 19.3 | 0.00 | 1.09 | 0.00 | 48 | 1013.6 |
| 20260507170403 | 16 | 310 | 4.8 | 11.3 | 0.00 | 1.09 | 0.00 | 48 | 1013.7 |
| 20260507165903 | 16 | 305 | 4.8 | 12.9 | 0.00 | 1.09 | 0.00 | 48 | 1014.0 |
| 20260507165404 | 16 | 281 | 11.3 | 24.1 | 0.00 | 1.09 | 0.00 | 48 | 1014.1 |
| 20260507164903 | 16 | 347 | 6.4 | 20.9 | 0.00 | 1.09 | 0.00 | 48 | 1014.2 |
| 20260507164406 | 16 | 315 | 8.0 | 16.1 | 0.00 | 1.09 | 0.00 | 48 | 1014.2 |
| 20260507163906 | 16 | 287 | 9.7 | 16.1 | 0.00 | 1.09 | 0.00 | 49 | 1014.2 |
| 20260507163406 | 16 | 324 | 4.8 | 25.7 | 0.00 | 1.09 | 0.00 | 49 | 1014.1 |
| 20260507162906 | 16 | 339 | 9.7 | 20.9 | 0.00 | 1.09 | 0.00 | 49 | 1014.1 |
| 20260507162406 | 16 | 352 | 3.2 | 9.7 | 0.00 | 1.09 | 0.00 | 50 | 1014.1 |
| 20260507161906 | 16 | 305 | 3.2 | 14.5 | 0.00 | 1.09 | 0.00 | 49 | 1014.1 |
| 20260507161406 | 16 | 316 | 1.6 | 11.3 | 0.00 | 1.09 | 0.00 | 50 | 1014.4 |
| 20260507160906 | 16 | 312 | 1.6 | 19.3 | 0.00 | 1.09 | 0.00 | 51 | 1014.2 |
| 20260507155906 | 16 | 342 | 3.2 | 19.3 | 0.00 | 1.09 | 0.00 | 50 | 1014.0 |
| 20260507155406 | 16 | 304 | 1.6 | 14.5 | 0.00 | 1.09 | 0.00 | 50 | 1014.1 |
| 20260507154405 | 17 | 293 | 4.8 | 12.9 | 0.00 | 1.09 | 0.00 | 49 | 1014.1 |
| 20260507153906 | 18 | 317 | 3.2 | 12.9 | 0.00 | 1.09 | 0.00 | 50 | 1013.9 |
| 20260507153405 | 18 | 78 | 1.6 | 11.3 | 0.00 | 1.09 | 0.00 | 52 | 1013.9 |
| 20260507152906 | 18 | 97 | 1.6 | 8.0 | 0.00 | 1.09 | 0.00 | 53 | 1013.8 |
| 20260507152406 | 17 | 327 | 1.6 | 9.7 | 0.00 | 1.09 | 0.00 | 53 | 1014.1 |
| 20260507151406 | 17 | 316 | 3.2 | 14.5 | 0.00 | 1.09 | 0.00 | 55 | 1014.0 |
| 20260507150906 | 16 | 13 | 3.2 | 12.9 | 0.00 | 1.09 | 0.00 | 56 | 1013.9 |
| 20260507150405 | 16 | 285 | 3.2 | 12.9 | 0.00 | 1.09 | 0.00 | 56 | 1014.2 |
| 20260507145906 | 16 | 315 | 1.6 | 16.1 | 0.00 | 1.09 | 0.00 | 58 | 1014.0 |
| 20260507145406 | 15 | 310 | 1.6 | 14.5 | 0.00 | 1.09 | 0.00 | 59 | 1014.2 |
| 20260507144906 | 15 | 353 | 0.0 | 12.9 | 0.00 | 1.09 | 0.00 | 59 | 1014.2 |
| 20260507144406 | 15 | 325 | 4.8 | 14.5 | 0.00 | 1.09 | 0.00 | 59 | 1014.2 |
| 20260507143906 | 15 | 321 | 6.4 | 14.5 | 0.00 | 1.09 | 0.00 | 61 | 1014.6 |
| 20260507143406 | 14 | 292 | 4.8 | 14.5 | 0.00 | 1.09 | 0.00 | 63 | 1014.2 |
| 20260507142905 | 14 | 6 | 4.8 | 16.1 | 0.00 | 1.09 | 0.00 | 64 | 1014.4 |
| 20260507142405 | 14 | 305 | 3.2 | 11.3 | 0.00 | 1.09 | 0.00 | 66 | 1014.4 |
| 20260507141906 | 13 | 328 | 0.0 | 4.8 | 0.00 | 1.09 | 0.00 | 67 | 1014.3 |
| 20260507140906 | 13 | 326 | 3.2 | 12.9 | 0.00 | 1.09 | 0.00 | 68 | 1014.5 |
| 20260507140406 | 13 | 4 | 0.0 | 9.7 | 0.00 | 1.09 | 0.00 | 68 | 1014.3 |
| 20260507135906 | 13 | 0 | 3.2 | 11.3 | 0.00 | 1.09 | 0.00 | 70 | 1014.6 |
| 20260507134906 | 12 | 9 | 1.6 | 11.3 | 0.00 | 1.09 | 0.00 | 72 | 1014.7 |
| 20260507134406 | 12 | 356 | 1.6 | 11.3 | 0.00 | 1.09 | 0.00 | 72 | 1014.6 |
| 20260507133906 | 12 | 5 | 3.2 | 11.3 | 0.00 | 1.09 | 0.00 | 73 | 1014.6 |
| 20260507133405 | 12 | 2 | 3.2 | 11.3 | 0.00 | 1.09 | 0.00 | 74 | 1014.8 |
| 20260507132906 | 11 | 314 | 3.2 | 11.3 | 0.00 | 1.09 | 0.00 | 75 | 1014.6 |
| 20260507132405 | 11 | 353 | 3.2 | 8.0 | 0.00 | 1.09 | 0.00 | 76 | 1014.9 |
| 20260507131906 | 11 | 320 | 0.0 | 9.7 | 0.00 | 1.09 | 0.00 | 76 | 1014.7 |
| 20260507130906 | 10 | 345 | 4.8 | 14.5 | 0.00 | 1.09 | 0.00 | 77 | 1014.7 |
| 20260507130405 | 10 | 340 | 3.2 | 12.9 | 0.00 | 1.09 | 0.00 | 78 | 1014.7 |
| 20260507125906 | 10 | 338 | 4.8 | 16.1 | 0.00 | 1.09 | 0.00 | 79 | 1014.9 |
| 20260507125405 | 10 | 13 | 3.2 | 11.3 | 0.00 | 1.09 | 0.00 | 79 | 1014.8 |
| 20260507124906 | 10 | 333 | 3.2 | 14.5 | 0.00 | 1.09 | 0.00 | 80 | 1014.8 |
| 20260507124405 | 10 | 23 | 0.0 | 9.7 | 0.00 | 1.09 | 0.00 | 81 | 1014.9 |
| 20260507123906 | 10 | 333 | 1.6 | 14.5 | 0.00 | 1.09 | 0.00 | 81 | 1014.8 |
| 20260507123405 | 9 | 45 | 0.0 | 11.3 | 0.00 | 1.09 | 0.00 | 82 | 1014.8 |
| 20260507122905 | 9 | 6 | 1.6 | 9.7 | 0.00 | 1.09 | 0.00 | 82 | 1014.9 |
| 20260507122406 | 8 | 15 | 3.2 | 8.0 | 0.00 | 1.09 | 0.00 | 83 | 1014.9 |
| 20260507121905 | 8 | 327 | 1.6 | 8.0 | 0.00 | 1.09 | 0.00 | 83 | 1015.3 |
| 20260507121406 | 8 | 322 | 3.2 | 12.9 | 0.00 | 1.09 | 0.00 | 84 | 1015.3 |
| 20260507120905 | 8 | 325 | 0.0 | 1.6 | 0.00 | 1.09 | 0.00 | 84 | 1015.2 |
| 20260507120405 | 7 | 309 | 1.6 | 8.0 | 0.00 | 1.09 | 0.00 | 84 | 1015.4 |
| 20260507115905 | 7 | 297 | 3.2 | 9.7 | 0.00 | 1.09 | 0.00 | 84 | 1015.6 |
| 20260507115405 | 7 | 339 | 1.6 | 11.3 | 0.00 | 1.09 | 0.00 | 84 | 1015.4 |
| 20260507114906 | 7 | 323 | 0.0 | 3.2 | 0.00 | 1.09 | 0.00 | 85 | 1015.6 |
| 20260507114406 | 6 | 328 | 0.0 | 3.2 | 0.00 | 1.09 | 0.00 | 84 | 1015.4 |
| 20260507113905 | 6 | 357 | 1.6 | 8.0 | 0.00 | 1.09 | 0.00 | 84 | 1015.5 |
| 20260507113405 | 6 | 320 | 0.0 | 1.6 | 0.00 | 1.09 | 0.00 | 84 | 1015.4 |
| 20260507112906 | 6 | 308 | 0.0 | 3.2 | 0.00 | 1.09 | 0.00 | 84 | 1015.6 |
| 20260507112406 | 6 | 307 | 0.0 | 1.6 | 0.00 | 1.09 | 0.00 | 84 | 1015.5 |
| 20260507111905 | 6 | 319 | 0.0 | 1.6 | 0.00 | 1.09 | 0.00 | 84 | 1015.3 |
| 20260507111405 | 6 | 336 | 0.0 | 0.0 | 0.00 | 1.09 | 0.00 | 84 | 1015.2 |
| 20260507110905 | 6 | 337 | 0.0 | 0.0 | 0.00 | 1.09 | 0.00 | 84 | 1015.3 |
| 20260507110405 | 5 | 339 | 0.0 | 0.0 | 0.00 | 1.09 | 0.00 | 84 | 1014.9 |
| 20260507105906 | 5 | 339 | 0.0 | 1.6 | 0.00 | 1.09 | 0.00 | 84 | 1015.0 |
| 20260507104905 | 5 | 337 | 0.0 | 1.6 | 0.00 | 1.09 | 0.00 | 83 | 1014.7 |
| 20260507103905 | 5 | 302 | 0.0 | 0.0 | 0.00 | 1.09 | 0.00 | 83 | 1014.8 |
| 20260507103405 | 5 | 300 | 0.0 | 0.0 | 0.00 | 1.09 | 0.00 | 83 | 1015.0 |
| 20260507102905 | 5 | 300 | 0.0 | 1.6 | 0.00 | 1.09 | 0.00 | 83 | 1014.6 |
| 20260507102406 | 5 | 304 | 0.0 | 1.6 | 0.00 | 1.09 | 0.00 | 83 | 1014.8 |
| 20260507101906 | 5 | 344 | 0.0 | 0.0 | 0.00 | 1.09 | 0.00 | 83 | 1014.7 |
| 20260507101405 | 5 | 345 | 0.0 | 0.0 | 0.00 | 1.09 | 0.00 | 83 | 1014.8 |
| 20260507100905 | 5 | 344 | 0.0 | 0.0 | 0.00 | 1.09 | 0.00 | 82 | 1014.5 |
| 20260507100405 | 5 | 302 | 0.0 | 0.0 | 0.00 | 1.09 | 0.00 | 82 | 1014.6 |
| 20260507095405 | 6 | 311 | 0.0 | 0.0 | 0.00 | 1.09 | 0.00 | 82 | 1014.7 |
| 20260507094905 | 6 | 331 | 0.0 | 0.0 | 0.00 | 1.09 | 0.00 | 82 | 1014.7 |
| 20260507094406 | 6 | 344 | 0.0 | 0.0 | 0.00 | 1.09 | 0.00 | 82 | 1014.7 |
| 20260507093905 | 6 | 344 | 0.0 | 0.0 | 0.00 | 1.09 | 0.00 | 82 | 1014.5 |
| 20260507092405 | 6 | 344 | 0.0 | 0.0 | 0.00 | 1.09 | 0.00 | 82 | 1014.7 |
| 20260507091905 | 6 | 344 | 0.0 | 0.0 | 0.00 | 1.09 | 0.00 | 82 | 1014.4 |
| 20260507091406 | 6 | 344 | 0.0 | 0.0 | 0.00 | 1.12 | 0.00 | 82 | 1014.5 |
| 20260507090905 | 6 | 344 | 0.0 | 0.0 | 0.00 | 1.12 | 0.00 | 81 | 1014.2 |
| 20260507090405 | 6 | 344 | 0.0 | 0.0 | 0.00 | 1.12 | 0.00 | 81 | 1014.5 |
| 20260507085905 | 6 | 344 | 0.0 | 0.0 | 0.00 | 1.12 | 0.00 | 81 | 1014.1 |
| 20260507085405 | 6 | 344 | 0.0 | 0.0 | 0.00 | 1.12 | 0.00 | 81 | 1014.4 |
| 20260507084905 | 6 | 344 | 0.0 | 0.0 | 0.00 | 1.12 | 0.00 | 81 | 1014.1 |
| 20260507083905 | 7 | 344 | 0.0 | 0.0 | 0.00 | 1.12 | 0.00 | 81 | 1014.5 |
| 20260507083405 | 7 | 344 | 0.0 | 0.0 | 0.00 | 1.12 | 0.00 | 81 | 1014.3 |
| 20260507082905 | 7 | 344 | 0.0 | 0.0 | 0.00 | 1.14 | 0.00 | 81 | 1014.2 |
| 20260507082405 | 7 | 344 | 0.0 | 0.0 | 0.00 | 1.17 | 0.00 | 81 | 1014.0 |
| 20260507081906 | 7 | 344 | 0.0 | 0.0 | 0.00 | 1.17 | 0.00 | 81 | 1014.1 |
| 20260507081405 | 7 | 344 | 0.0 | 0.0 | 0.00 | 1.17 | 0.00 | 80 | 1013.9 |
| 20260507080905 | 7 | 344 | 0.0 | 0.0 | 0.00 | 1.17 | 0.00 | 80 | 1014.1 |
| 20260507080405 | 7 | 344 | 0.0 | 0.0 | 0.00 | 1.17 | 0.00 | 80 | 1014.1 |
| 20260507075905 | 7 | 344 | 0.0 | 0.0 | 0.00 | 1.17 | 0.00 | 80 | 1013.9 |
| 20260507075405 | 7 | 344 | 0.0 | 0.0 | 0.00 | 1.17 | 0.00 | 80 | 1013.8 |
| 20260507074905 | 7 | 344 | 0.0 | 0.0 | 0.00 | 1.19 | 0.00 | 80 | 1014.0 |
| 20260507074405 | 7 | 344 | 0.0 | 0.0 | 0.00 | 1.22 | 0.00 | 80 | 1013.9 |
| 20260507073905 | 7 | 344 | 0.0 | 0.0 | 0.00 | 1.24 | 0.00 | 80 | 1014.1 |
| 20260507073404 | 7 | 344 | 0.0 | 0.0 | 0.00 | 1.27 | 0.00 | 79 | 1013.9 |
| 20260507072905 | 7 | 344 | 0.0 | 0.0 | 0.00 | 1.27 | 0.00 | 79 | 1013.8 |
| 20260507071904 | 7 | 344 | 0.0 | 0.0 | 0.00 | 1.32 | 0.00 | 79 | 1014.0 |
| 20260507071405 | 7 | 344 | 0.0 | 0.0 | 0.00 | 1.32 | 0.00 | 79 | 1014.1 |
| 20260507070904 | 7 | 344 | 0.0 | 0.0 | 0.00 | 1.35 | 0.00 | 79 | 1013.9 |
| 20260507070405 | 7 | 344 | 0.0 | 0.0 | 0.00 | 1.37 | 0.00 | 79 | 1013.9 |
| 20260507065905 | 7 | 344 | 0.0 | 0.0 | 0.00 | 1.40 | 0.00 | 79 | 1014.0 |
| 20260507065405 | 7 | 344 | 0.0 | 0.0 | 0.00 | 1.40 | 0.00 | 79 | 1014.0 |
| 20260507064405 | 7 | 344 | 0.0 | 0.0 | 0.00 | 1.42 | 0.00 | 78 | 1014.2 |
| 20260507063904 | 8 | 344 | 0.0 | 0.0 | 0.00 | 1.42 | 0.00 | 78 | 1013.9 |
| 20260507062905 | 8 | 344 | 0.0 | 0.0 | 0.00 | 1.55 | 0.00 | 78 | 1013.9 |
| 20260507061905 | 8 | 344 | 0.0 | 0.0 | 0.00 | 1.60 | 0.00 | 78 | 1014.4 |
| 20260507061405 | 8 | 344 | 0.0 | 0.0 | 0.00 | 1.60 | 0.00 | 78 | 1014.4 |
| 20260507060904 | 8 | 344 | 0.0 | 0.0 | 0.00 | 1.60 | 0.00 | 77 | 1014.3 |
| 20260507060405 | 8 | 344 | 0.0 | 0.0 | 0.00 | 1.60 | 0.00 | 77 | 1014.4 |
| 20260507055905 | 8 | 344 | 0.0 | 0.0 | 0.00 | 1.63 | 0.00 | 77 | 1014.2 |
| 20260507055405 | 8 | 344 | 0.0 | 0.0 | 0.00 | 1.63 | 0.00 | 76 | 1014.1 |
| 20260507054405 | 8 | 344 | 0.0 | 0.0 | 0.00 | 1.75 | 0.00 | 76 | 1014.1 |
| 20260507053905 | 8 | 344 | 0.0 | 0.0 | 0.00 | 1.85 | 0.00 | 76 | 1013.8 |
| 20260507053405 | 8 | 344 | 0.0 | 0.0 | 0.00 | 2.01 | 0.00 | 76 | 1014.0 |
| 20260507052905 | 8 | 344 | 0.0 | 0.0 | 0.00 | 2.13 | 0.00 | 75 | 1014.0 |
| 20260507052405 | 8 | 344 | 0.0 | 0.0 | 0.00 | 2.16 | 0.00 | 75 | 1013.8 |
| 20260507051905 | 8 | 344 | 0.0 | 0.0 | 0.00 | 2.16 | 0.00 | 75 | 1013.7 |
| 20260507051405 | 8 | 344 | 0.0 | 0.0 | 0.00 | 2.16 | 0.00 | 75 | 1014.2 |
| 20260507050905 | 9 | 344 | 0.0 | 0.0 | 0.00 | 2.16 | 0.00 | 75 | 1014.1 |
| 20260507050405 | 9 | 344 | 0.0 | 0.0 | 0.00 | 2.16 | 0.00 | 75 | 1014.0 |
| 20260507045905 | 9 | 344 | 0.0 | 0.0 | 0.00 | 2.16 | 1.09 | 75 | 1014.0 |
| 20260507044405 | 9 | 344 | 0.0 | 0.0 | 0.00 | 2.16 | 1.09 | 74 | 1014.1 |
| 20260507043904 | 9 | 344 | 0.0 | 0.0 | 0.00 | 2.16 | 1.09 | 74 | 1014.1 |
| 20260507043404 | 8 | 344 | 0.0 | 0.0 | 0.00 | 2.16 | 1.09 | 73 | 1014.2 |
| 20260507042905 | 8 | 344 | 0.0 | 0.0 | 0.00 | 2.16 | 1.09 | 73 | 1014.1 |
| 20260507042404 | 9 | 344 | 0.0 | 0.0 | 0.00 | 2.16 | 1.09 | 73 | 1014.3 |
| 20260507041905 | 9 | 344 | 0.0 | 0.0 | 0.00 | 2.18 | 1.09 | 73 | 1014.2 |
| 20260507041405 | 9 | 344 | 0.0 | 0.0 | 0.00 | 2.18 | 1.09 | 72 | 1014.1 |
| 20260507040904 | 9 | 344 | 0.0 | 0.0 | 0.00 | 2.24 | 1.09 | 72 | 1014.2 |
| 20260507040404 | 9 | 346 | 0.0 | 0.0 | 0.00 | 2.24 | 1.09 | 72 | 1014.2 |
| 20260507035905 | 9 | 346 | 0.0 | 0.0 | 0.00 | 1.40 | 1.09 | 72 | 1014.4 |
| 20260507035404 | 9 | 350 | 0.0 | 0.0 | 0.00 | 1.40 | 1.09 | 71 | 1014.2 |
| 20260507034904 | 9 | 350 | 0.0 | 0.0 | 0.00 | 1.40 | 1.09 | 71 | 1014.2 |
| 20260507034405 | 9 | 350 | 0.0 | 0.0 | 0.00 | 1.40 | 1.09 | 71 | 1014.4 |
| 20260507033405 | 9 | 350 | 0.0 | 0.0 | 0.00 | 1.42 | 1.09 | 71 | 1014.0 |
| 20260507032905 | 9 | 350 | 0.0 | 0.0 | 0.00 | 1.42 | 1.09 | 70 | 1014.0 |
| 20260507030905 | 10 | 350 | 0.0 | 0.0 | 0.00 | 1.42 | 1.09 | 69 | 1014.1 |
| 20260507030404 | 10 | 350 | 0.0 | 0.0 | 0.00 | 1.45 | 1.09 | 69 | 1014.0 |
| 20260507025905 | 10 | 350 | 0.0 | 0.0 | 0.00 | 1.47 | 1.09 | 68 | 1013.9 |
| 20260507024904 | 10 | 350 | 0.0 | 0.0 | 0.00 | 1.47 | 1.09 | 68 | 1013.7 |
| 20260507024405 | 10 | 350 | 0.0 | 0.0 | 0.00 | 1.47 | 1.09 | 67 | 1013.7 |
| 20260507023905 | 11 | 350 | 0.0 | 0.0 | 0.00 | 1.47 | 1.09 | 67 | 1013.8 |
| 20260507023405 | 11 | 350 | 0.0 | 0.0 | 0.00 | 1.47 | 1.09 | 67 | 1013.2 |
| 20260507022904 | 11 | 350 | 0.0 | 0.0 | 0.00 | 1.47 | 1.09 | 66 | 1013.4 |
| 20260507022404 | 11 | 350 | 0.0 | 0.0 | 0.00 | 1.47 | 1.09 | 66 | 1013.5 |
| 20260507021404 | 11 | 350 | 0.0 | 1.6 | 0.00 | 1.47 | 1.09 | 65 | 1013.1 |
| 20260507020904 | 11 | 347 | 0.0 | 0.0 | 0.00 | 1.47 | 1.09 | 65 | 1013.1 |
| 20260507020404 | 12 | 352 | 0.0 | 0.0 | 0.00 | 1.47 | 1.09 | 65 | 1013.2 |
| 20260507015905 | 12 | 353 | 0.0 | 0.0 | 0.00 | 1.47 | 1.09 | 65 | 1013.3 |
| 20260507015404 | 12 | 353 | 0.0 | 0.0 | 0.00 | 1.47 | 1.09 | 65 | 1012.9 |
| 20260507014904 | 12 | 352 | 0.0 | 3.2 | 0.00 | 1.47 | 1.09 | 65 | 1012.9 |
| 20260507014404 | 12 | 350 | 1.6 | 3.2 | 0.00 | 1.50 | 1.09 | 64 | 1012.6 |
| 20260507012904 | 12 | 317 | 0.0 | 1.6 | 0.00 | 1.50 | 1.09 | 65 | 1012.6 |
| 20260507012405 | 13 | 307 | 0.0 | 1.6 | 0.00 | 1.50 | 1.09 | 65 | 1012.9 |
| 20260507011904 | 13 | 343 | 0.0 | 0.0 | 0.00 | 1.50 | 1.09 | 65 | 1013.0 |
| 20260507011405 | 13 | 340 | 0.0 | 1.6 | 0.00 | 1.50 | 1.09 | 65 | 1012.9 |
| 20260507010904 | 13 | 335 | 0.0 | 3.2 | 0.00 | 1.50 | 1.09 | 65 | 1012.5 |
| 20260507010405 | 13 | 336 | 0.0 | 1.6 | 0.00 | 1.50 | 1.09 | 64 | 1012.8 |
| 20260507005905 | 13 | 337 | 0.0 | 3.2 | 0.00 | 1.50 | 1.09 | 64 | 1012.7 |
| 20260507005404 | 13 | 331 | 0.0 | 4.8 | 0.00 | 1.50 | 1.09 | 64 | 1012.6 |
| 20260507003905 | 14 | 323 | 1.6 | 4.8 | 0.00 | 1.50 | 1.09 | 64 | 1012.6 |
| 20260507003405 | 14 | 341 | 0.0 | 3.2 | 0.00 | 1.50 | 1.09 | 64 | 1012.4 |
| 20260507002904 | 14 | 337 | 1.6 | 3.2 | 0.00 | 1.50 | 1.09 | 64 | 1012.5 |
| 20260507002404 | 14 | 351 | 0.0 | 1.6 | 0.00 | 1.50 | 1.09 | 63 | 1012.2 |
| 20260507001904 | 14 | 350 | 0.0 | 0.0 | 0.00 | 1.52 | 1.09 | 63 | 1012.6 |
| 20260507001405 | 14 | 350 | 0.0 | 0.0 | 0.00 | 1.55 | 1.09 | 63 | 1012.1 |
| 20260507000904 | 14 | 350 | 0.0 | 0.0 | 0.00 | 1.57 | 1.09 | 62 | 1012.2 |
| 20260507000405 | 14 | 350 | 0.0 | 1.6 | 0.00 | 1.57 | 1.09 | 62 | 1011.8 |